sensor_id;sensor_type;location;lat;lon;timestamp;temperature;humidity
8172;DHT22;4127;47.908;10.850;2022-09-16T00:00:24;12.90;99.90
8172;DHT22;4127;47.908;10.850;2022-09-16T00:02:54;12.90;99.90
8172;DHT22;4127;47.908;10.850;2022-09-16T00:05:21;13.20;99.90
8172;DHT22;4127;47.908;10.850;2022-09-16T00:07:48;13.00;99.90
8172;DHT22;4127;47.908;10.850;2022-09-16T00:10:15;12.90;99.90
8172;DHT22;4127;47.908;10.850;2022-09-16T00:12:41;12.90;99.90
8172;DHT22;4127;47.908;10.850;2022-09-16T00:15:09;12.90;99.90
8172;DHT22;4127;47.908;10.850;2022-09-16T00:17:36;12.90;99.90
8172;DHT22;4127;47.908;10.850;2022-09-16T00:20:05;12.90;99.90
8172;DHT22;4127;47.908;10.850;2022-09-16T00:22:32;12.70;99.90
8172;DHT22;4127;47.908;10.850;2022-09-16T00:24:59;12.70;99.90
8172;DHT22;4127;47.908;10.850;2022-09-16T00:27:26;12.70;99.90
8172;DHT22;4127;47.908;10.850;2022-09-16T00:29:53;12.80;99.90
8172;DHT22;4127;47.908;10.850;2022-09-16T00:32:20;12.70;99.90
8172;DHT22;4127;47.908;10.850;2022-09-16T00:34:46;12.80;99.90
8172;DHT22;4127;47.908;10.850;2022-09-16T00:37:13;13.00;99.90
8172;DHT22;4127;47.908;10.850;2022-09-16T00:39:40;12.70;99.90
8172;DHT22;4127;47.908;10.850;2022-09-16T00:42:09;12.70;99.90
8172;DHT22;4127;47.908;10.850;2022-09-16T00:45:02;12.60;99.90
8172;DHT22;4127;47.908;10.850;2022-09-16T00:47:37;12.50;99.90
8172;DHT22;4127;47.908;10.850;2022-09-16T00:52:43;12.50;99.90
8172;DHT22;4127;47.908;10.850;2022-09-16T00:55:15;12.70;99.90
8172;DHT22;4127;47.908;10.850;2022-09-16T00:57:43;12.60;99.90
8172;DHT22;4127;47.908;10.850;2022-09-16T01:00:10;12.50;99.90
8172;DHT22;4127;47.908;10.850;2022-09-16T01:02:41;12.50;99.90
8172;DHT22;4127;47.908;10.850;2022-09-16T01:05:13;12.50;99.90
8172;DHT22;4127;47.908;10.850;2022-09-16T01:07:49;12.50;99.90
8172;DHT22;4127;47.908;10.850;2022-09-16T01:10:19;12.60;99.90
8172;DHT22;4127;47.908;10.850;2022-09-16T01:12:49;12.60;99.90
8172;DHT22;4127;47.908;10.850;2022-09-16T01:15:16;12.60;99.90
8172;DHT22;4127;47.908;10.850;2022-09-16T01:23:35;12.50;99.90
8172;DHT22;4127;47.908;10.850;2022-09-16T01:35:03;12.40;99.90
8172;DHT22;4127;47.908;10.850;2022-09-16T01:44:02;12.40;99.90
8172;DHT22;4127;47.908;10.850;2022-09-16T01:46:46;12.50;99.90
8172;DHT22;4127;47.908;10.850;2022-09-16T01:51:49;12.50;99.90
8172;DHT22;4127;47.908;10.850;2022-09-16T01:54:25;12.50;99.90
8172;DHT22;4127;47.908;10.850;2022-09-16T02:02:22;12.50;99.90
8172;DHT22;4127;47.908;10.850;2022-09-16T02:04:55;12.50;99.90
8172;DHT22;4127;47.908;10.850;2022-09-16T02:07:27;12.50;99.90
8172;DHT22;4127;47.908;10.850;2022-09-16T02:10:02;12.60;99.90
8172;DHT22;4127;47.908;10.850;2022-09-16T02:12:35;12.60;99.90
8172;DHT22;4127;47.908;10.850;2022-09-16T02:15:09;12.60;99.90
8172;DHT22;4127;47.908;10.850;2022-09-16T02:17:43;12.60;99.90
8172;DHT22;4127;47.908;10.850;2022-09-16T02:20:14;12.70;99.90
8172;DHT22;4127;47.908;10.850;2022-09-16T02:22:46;12.70;99.90
8172;DHT22;4127;47.908;10.850;2022-09-16T02:25:15;12.70;99.90
8172;DHT22;4127;47.908;10.850;2022-09-16T02:27:46;12.90;99.90
8172;DHT22;4127;47.908;10.850;2022-09-16T02:30:17;12.80;99.90
8172;DHT22;4127;47.908;10.850;2022-09-16T02:32:51;12.70;99.90
8172;DHT22;4127;47.908;10.850;2022-09-16T02:35:21;12.70;99.90
8172;DHT22;4127;47.908;10.850;2022-09-16T02:38:09;12.80;99.90
8172;DHT22;4127;47.908;10.850;2022-09-16T02:40:45;12.70;99.90
8172;DHT22;4127;47.908;10.850;2022-09-16T02:43:13;12.60;99.90
8172;DHT22;4127;47.908;10.850;2022-09-16T02:54:40;12.50;99.90
8172;DHT22;4127;47.908;10.850;2022-09-16T02:57:10;12.50;99.90
8172;DHT22;4127;47.908;10.850;2022-09-16T02:59:37;12.50;99.90
8172;DHT22;4127;47.908;10.850;2022-09-16T03:02:05;12.50;99.90
8172;DHT22;4127;47.908;10.850;2022-09-16T03:04:33;12.50;99.90
8172;DHT22;4127;47.908;10.850;2022-09-16T03:07:03;12.50;99.90
8172;DHT22;4127;47.908;10.850;2022-09-16T03:09:33;12.50;99.90
8172;DHT22;4127;47.908;10.850;2022-09-16T03:28:23;12.60;99.90
8172;DHT22;4127;47.908;10.850;2022-09-16T03:31:06;12.60;99.90
8172;DHT22;4127;47.908;10.850;2022-09-16T03:33:47;12.50;99.90
8172;DHT22;4127;47.908;10.850;2022-09-16T03:36:20;12.50;99.90
8172;DHT22;4127;47.908;10.850;2022-09-16T03:38:48;12.40;99.90
8172;DHT22;4127;47.908;10.850;2022-09-16T03:41:16;12.40;99.90
8172;DHT22;4127;47.908;10.850;2022-09-16T03:43:55;12.40;99.90
8172;DHT22;4127;47.908;10.850;2022-09-16T03:46:29;12.50;99.90
8172;DHT22;4127;47.908;10.850;2022-09-16T03:48:57;12.40;99.90
8172;DHT22;4127;47.908;10.850;2022-09-16T03:51:25;12.40;99.90
8172;DHT22;4127;47.908;10.850;2022-09-16T03:53:53;12.50;99.90
8172;DHT22;4127;47.908;10.850;2022-09-16T03:56:22;12.50;99.90
8172;DHT22;4127;47.908;10.850;2022-09-16T03:58:49;12.50;99.90
8172;DHT22;4127;47.908;10.850;2022-09-16T04:01:15;12.50;99.90
8172;DHT22;4127;47.908;10.850;2022-09-16T04:03:42;12.50;99.90
8172;DHT22;4127;47.908;10.850;2022-09-16T04:06:09;12.50;99.90
8172;DHT22;4127;47.908;10.850;2022-09-16T04:08:36;12.50;99.90
8172;DHT22;4127;47.908;10.850;2022-09-16T04:11:04;12.50;99.90
8172;DHT22;4127;47.908;10.850;2022-09-16T04:13:32;12.50;99.90
8172;DHT22;4127;47.908;10.850;2022-09-16T04:16:01;12.50;99.90
8172;DHT22;4127;47.908;10.850;2022-09-16T04:18:32;12.50;99.90
8172;DHT22;4127;47.908;10.850;2022-09-16T04:21:01;12.50;99.90
8172;DHT22;4127;47.908;10.850;2022-09-16T04:23:28;12.60;99.90
8172;DHT22;4127;47.908;10.850;2022-09-16T04:25:58;12.50;99.90
8172;DHT22;4127;47.908;10.850;2022-09-16T04:28:26;12.50;99.90
8172;DHT22;4127;47.908;10.850;2022-09-16T04:30:53;12.50;99.90
8172;DHT22;4127;47.908;10.850;2022-09-16T04:33:30;12.40;99.90
8172;DHT22;4127;47.908;10.850;2022-09-16T04:36:08;12.40;99.90
8172;DHT22;4127;47.908;10.850;2022-09-16T04:38:35;12.50;99.90
8172;DHT22;4127;47.908;10.850;2022-09-16T04:41:14;12.50;99.90
8172;DHT22;4127;47.908;10.850;2022-09-16T04:43:41;12.50;99.90
8172;DHT22;4127;47.908;10.850;2022-09-16T04:46:08;12.50;99.90
8172;DHT22;4127;47.908;10.850;2022-09-16T04:48:35;12.60;99.90
8172;DHT22;4127;47.908;10.850;2022-09-16T04:51:10;12.40;99.90
8172;DHT22;4127;47.908;10.850;2022-09-16T04:53:39;12.40;99.90
8172;DHT22;4127;47.908;10.850;2022-09-16T04:56:17;12.40;99.90
8172;DHT22;4127;47.908;10.850;2022-09-16T04:58:46;12.40;99.90
8172;DHT22;4127;47.908;10.850;2022-09-16T05:01:16;12.50;99.90
8172;DHT22;4127;47.908;10.850;2022-09-16T05:03:45;12.50;99.90
8172;DHT22;4127;47.908;10.850;2022-09-16T05:06:14;12.40;99.90
8172;DHT22;4127;47.908;10.850;2022-09-16T05:08:46;12.40;99.90
8172;DHT22;4127;47.908;10.850;2022-09-16T05:11:17;12.50;99.90
8172;DHT22;4127;47.908;10.850;2022-09-16T05:13:45;12.40;99.90
8172;DHT22;4127;47.908;10.850;2022-09-16T05:16:14;12.40;99.90
8172;DHT22;4127;47.908;10.850;2022-09-16T05:18:43;12.40;99.90
8172;DHT22;4127;47.908;10.850;2022-09-16T05:21:14;12.30;99.90
8172;DHT22;4127;47.908;10.850;2022-09-16T05:23:41;12.40;99.90
8172;DHT22;4127;47.908;10.850;2022-09-16T05:26:15;12.50;99.90
8172;DHT22;4127;47.908;10.850;2022-09-16T05:28:42;12.40;99.90
8172;DHT22;4127;47.908;10.850;2022-09-16T05:31:12;12.30;99.90
8172;DHT22;4127;47.908;10.850;2022-09-16T05:33:41;12.30;99.90
8172;DHT22;4127;47.908;10.850;2022-09-16T05:36:14;12.40;99.90
8172;DHT22;4127;47.908;10.850;2022-09-16T05:38:42;12.40;99.90
8172;DHT22;4127;47.908;10.850;2022-09-16T05:41:28;12.40;99.90
8172;DHT22;4127;47.908;10.850;2022-09-16T05:43:58;12.40;99.90
8172;DHT22;4127;47.908;10.850;2022-09-16T05:46:26;12.40;99.90
8172;DHT22;4127;47.908;10.850;2022-09-16T05:48:54;12.50;99.90
8172;DHT22;4127;47.908;10.850;2022-09-16T05:51:22;12.40;99.90
8172;DHT22;4127;47.908;10.850;2022-09-16T05:53:50;12.50;99.90
8172;DHT22;4127;47.908;10.850;2022-09-16T05:56:25;12.60;99.90
8172;DHT22;4127;47.908;10.850;2022-09-16T05:58:53;12.60;99.90
8172;DHT22;4127;47.908;10.850;2022-09-16T06:01:26;12.60;99.90
8172;DHT22;4127;47.908;10.850;2022-09-16T06:03:53;12.80;99.90
8172;DHT22;4127;47.908;10.850;2022-09-16T06:06:27;12.70;99.90
8172;DHT22;4127;47.908;10.850;2022-09-16T06:08:56;12.70;99.90
8172;DHT22;4127;47.908;10.850;2022-09-16T06:11:24;12.80;99.90
8172;DHT22;4127;47.908;10.850;2022-09-16T06:13:56;12.80;99.90
8172;DHT22;4127;47.908;10.850;2022-09-16T06:16:24;12.80;99.90
8172;DHT22;4127;47.908;10.850;2022-09-16T06:18:52;12.80;99.90
8172;DHT22;4127;47.908;10.850;2022-09-16T06:21:20;12.90;99.90
8172;DHT22;4127;47.908;10.850;2022-09-16T06:23:47;12.80;99.90
8172;DHT22;4127;47.908;10.850;2022-09-16T06:26:19;12.90;99.90
8172;DHT22;4127;47.908;10.850;2022-09-16T06:28:47;12.90;99.90
8172;DHT22;4127;47.908;10.850;2022-09-16T06:31:20;13.00;99.90
8172;DHT22;4127;47.908;10.850;2022-09-16T06:33:47;13.00;99.90
8172;DHT22;4127;47.908;10.850;2022-09-16T06:36:18;13.00;99.90
8172;DHT22;4127;47.908;10.850;2022-09-16T06:38:46;13.00;99.90
8172;DHT22;4127;47.908;10.850;2022-09-16T06:41:14;13.00;99.90
8172;DHT22;4127;47.908;10.850;2022-09-16T06:43:42;13.10;99.90
8172;DHT22;4127;47.908;10.850;2022-09-16T06:46:12;13.00;99.90
8172;DHT22;4127;47.908;10.850;2022-09-16T06:48:40;13.10;99.90
8172;DHT22;4127;47.908;10.850;2022-09-16T06:51:16;13.10;99.90
8172;DHT22;4127;47.908;10.850;2022-09-16T06:53:44;13.10;99.90
8172;DHT22;4127;47.908;10.850;2022-09-16T06:56:14;13.20;99.90
8172;DHT22;4127;47.908;10.850;2022-09-16T06:58:42;13.20;99.90
8172;DHT22;4127;47.908;10.850;2022-09-16T07:01:17;13.30;99.90
8172;DHT22;4127;47.908;10.850;2022-09-16T07:03:47;13.30;99.90
8172;DHT22;4127;47.908;10.850;2022-09-16T07:06:15;13.30;99.90
8172;DHT22;4127;47.908;10.850;2022-09-16T07:08:43;13.40;99.90
8172;DHT22;4127;47.908;10.850;2022-09-16T07:11:16;13.40;99.90
8172;DHT22;4127;47.908;10.850;2022-09-16T07:13:44;13.50;99.90
8172;DHT22;4127;47.908;10.850;2022-09-16T07:16:15;13.50;99.90
8172;DHT22;4127;47.908;10.850;2022-09-16T07:18:43;13.60;99.90
8172;DHT22;4127;47.908;10.850;2022-09-16T07:21:17;13.60;99.90
8172;DHT22;4127;47.908;10.850;2022-09-16T07:23:45;13.70;99.90
8172;DHT22;4127;47.908;10.850;2022-09-16T07:26:16;13.70;99.90
8172;DHT22;4127;47.908;10.850;2022-09-16T07:28:44;13.80;99.90
8172;DHT22;4127;47.908;10.850;2022-09-16T07:31:22;13.80;99.90
8172;DHT22;4127;47.908;10.850;2022-09-16T07:33:54;13.90;99.90
8172;DHT22;4127;47.908;10.850;2022-09-16T07:36:32;13.90;99.90
8172;DHT22;4127;47.908;10.850;2022-09-16T07:38:59;13.90;99.90
8172;DHT22;4127;47.908;10.850;2022-09-16T07:41:28;14.00;99.90
8172;DHT22;4127;47.908;10.850;2022-09-16T07:43:57;14.00;99.90
8172;DHT22;4127;47.908;10.850;2022-09-16T07:46:26;14.00;99.90
8172;DHT22;4127;47.908;10.850;2022-09-16T07:48:54;14.00;99.90
8172;DHT22;4127;47.908;10.850;2022-09-16T07:51:23;14.00;99.90
8172;DHT22;4127;47.908;10.850;2022-09-16T07:53:58;14.00;99.90
8172;DHT22;4127;47.908;10.850;2022-09-16T07:56:27;14.10;99.90
8172;DHT22;4127;47.908;10.850;2022-09-16T07:58:56;14.20;99.90
8172;DHT22;4127;47.908;10.850;2022-09-16T08:01:23;14.10;99.90
8172;DHT22;4127;47.908;10.850;2022-09-16T08:03:51;14.20;99.90
8172;DHT22;4127;47.908;10.850;2022-09-16T08:06:20;14.10;99.90
8172;DHT22;4127;47.908;10.850;2022-09-16T08:08:50;14.10;99.90
8172;DHT22;4127;47.908;10.850;2022-09-16T08:11:17;14.20;99.90
8172;DHT22;4127;47.908;10.850;2022-09-16T08:13:44;14.20;99.90
8172;DHT22;4127;47.908;10.850;2022-09-16T08:16:14;14.20;99.90
8172;DHT22;4127;47.908;10.850;2022-09-16T08:18:42;14.20;99.90
8172;DHT22;4127;47.908;10.850;2022-09-16T08:21:14;14.20;99.90
8172;DHT22;4127;47.908;10.850;2022-09-16T08:23:42;14.20;99.90
8172;DHT22;4127;47.908;10.850;2022-09-16T08:26:09;14.20;99.90
8172;DHT22;4127;47.908;10.850;2022-09-16T08:28:39;14.20;99.90
8172;DHT22;4127;47.908;10.850;2022-09-16T08:31:27;14.20;99.90
8172;DHT22;4127;47.908;10.850;2022-09-16T08:33:54;14.30;99.90
8172;DHT22;4127;47.908;10.850;2022-09-16T08:36:22;14.30;99.90
8172;DHT22;4127;47.908;10.850;2022-09-16T08:38:51;14.30;99.90
8172;DHT22;4127;47.908;10.850;2022-09-16T08:44:37;14.30;99.90
8172;DHT22;4127;47.908;10.850;2022-09-16T08:49:59;14.20;99.90
8172;DHT22;4127;47.908;10.850;2022-09-16T08:52:36;14.20;99.90
8172;DHT22;4127;47.908;10.850;2022-09-16T08:55:25;14.20;99.90
8172;DHT22;4127;47.908;10.850;2022-09-16T09:00:42;14.10;99.90
8172;DHT22;4127;47.908;10.850;2022-09-16T09:05:52;14.10;99.90
8172;DHT22;4127;47.908;10.850;2022-09-16T09:11:08;14.00;99.90
8172;DHT22;4127;47.908;10.850;2022-09-16T09:13:43;13.90;99.90
8172;DHT22;4127;47.908;10.850;2022-09-16T09:16:43;13.80;99.90
8172;DHT22;4127;47.908;10.850;2022-09-16T09:24:49;13.90;99.90
8172;DHT22;4127;47.908;10.850;2022-09-16T09:27:30;13.90;99.90
8172;DHT22;4127;47.908;10.850;2022-09-16T09:30:06;13.90;99.90
8172;DHT22;4127;47.908;10.850;2022-09-16T09:32:52;13.80;99.90
8172;DHT22;4127;47.908;10.850;2022-09-16T09:41:17;13.80;99.90
8172;DHT22;4127;47.908;10.850;2022-09-16T09:46:35;13.90;99.90
8172;DHT22;4127;47.908;10.850;2022-09-16T09:49:41;14.00;99.90
8172;DHT22;4127;47.908;10.850;2022-09-16T09:54:55;13.90;99.90
8172;DHT22;4127;47.908;10.850;2022-09-16T10:00:01;13.90;99.90
8172;DHT22;4127;47.908;10.850;2022-09-16T10:02:28;13.90;99.90
8172;DHT22;4127;47.908;10.850;2022-09-16T10:04:54;14.00;99.90
8172;DHT22;4127;47.908;10.850;2022-09-16T10:07:23;13.80;99.90
8172;DHT22;4127;47.908;10.850;2022-09-16T10:10:01;13.80;99.90
8172;DHT22;4127;47.908;10.850;2022-09-16T10:12:32;13.90;99.90
8172;DHT22;4127;47.908;10.850;2022-09-16T10:15:00;14.10;99.90
8172;DHT22;4127;47.908;10.850;2022-09-16T10:17:30;14.30;99.90
8172;DHT22;4127;47.908;10.850;2022-09-16T10:19:59;14.40;99.90
8172;DHT22;4127;47.908;10.850;2022-09-16T10:22:32;14.80;99.90
8172;DHT22;4127;47.908;10.850;2022-09-16T10:25:01;15.10;99.90
8172;DHT22;4127;47.908;10.850;2022-09-16T10:27:32;15.40;99.90
8172;DHT22;4127;47.908;10.850;2022-09-16T10:30:11;15.50;99.90
8172;DHT22;4127;47.908;10.850;2022-09-16T10:33:21;15.40;99.90
8172;DHT22;4127;47.908;10.850;2022-09-16T10:36:00;15.50;99.90
8172;DHT22;4127;47.908;10.850;2022-09-16T10:38:39;15.50;99.90
8172;DHT22;4127;47.908;10.850;2022-09-16T10:43:56;15.40;99.90
8172;DHT22;4127;47.908;10.850;2022-09-16T10:46:23;15.40;99.90
8172;DHT22;4127;47.908;10.850;2022-09-16T10:48:54;15.50;99.90
8172;DHT22;4127;47.908;10.850;2022-09-16T10:51:28;15.60;99.90
8172;DHT22;4127;47.908;10.850;2022-09-16T10:53:57;15.80;99.90
8172;DHT22;4127;47.908;10.850;2022-09-16T10:56:46;15.80;99.90
8172;DHT22;4127;47.908;10.850;2022-09-16T10:59:13;15.80;99.90
8172;DHT22;4127;47.908;10.850;2022-09-16T11:02:31;16.00;99.90
8172;DHT22;4127;47.908;10.850;2022-09-16T11:10:02;15.90;99.90
8172;DHT22;4127;47.908;10.850;2022-09-16T11:24:01;15.40;99.90
8172;DHT22;4127;47.908;10.850;2022-09-16T11:29:12;15.10;99.90
8172;DHT22;4127;47.908;10.850;2022-09-16T11:31:48;15.00;99.90
8172;DHT22;4127;47.908;10.850;2022-09-16T11:34:47;13.60;99.90
8172;DHT22;4127;47.908;10.850;2022-09-16T11:40:26;12.70;99.90
8172;DHT22;4127;47.908;10.850;2022-09-16T11:45:51;11.60;99.90
8172;DHT22;4127;47.908;10.850;2022-09-16T11:51:14;11.10;99.90
8172;DHT22;4127;47.908;10.850;2022-09-16T11:56:30;10.90;99.90
8172;DHT22;4127;47.908;10.850;2022-09-16T11:59:27;10.70;99.90
8172;DHT22;4127;47.908;10.850;2022-09-16T12:01:59;10.60;99.90
8172;DHT22;4127;47.908;10.850;2022-09-16T12:07:44;10.30;99.90
8172;DHT22;4127;47.908;10.850;2022-09-16T12:10:25;10.50;99.90
8172;DHT22;4127;47.908;10.850;2022-09-16T12:13:07;10.50;99.90
8172;DHT22;4127;47.908;10.850;2022-09-16T12:15:39;10.40;99.90
8172;DHT22;4127;47.908;10.850;2022-09-16T12:21:22;10.70;99.90
8172;DHT22;4127;47.908;10.850;2022-09-16T12:23:56;10.80;99.90
8172;DHT22;4127;47.908;10.850;2022-09-16T12:26:29;11.00;99.90
8172;DHT22;4127;47.908;10.850;2022-09-16T12:29:20;10.90;99.90
8172;DHT22;4127;47.908;10.850;2022-09-16T12:31:57;10.70;99.90
8172;DHT22;4127;47.908;10.850;2022-09-16T12:34:35;10.60;99.90
8172;DHT22;4127;47.908;10.850;2022-09-16T12:39:36;10.50;99.90
8172;DHT22;4127;47.908;10.850;2022-09-16T12:48:00;10.80;99.90
8172;DHT22;4127;47.908;10.850;2022-09-16T12:59:03;10.60;99.90
8172;DHT22;4127;47.908;10.850;2022-09-16T13:01:38;10.60;99.90
8172;DHT22;4127;47.908;10.850;2022-09-16T13:04:13;10.80;99.90
8172;DHT22;4127;47.908;10.850;2022-09-16T13:06:52;11.10;99.90
8172;DHT22;4127;47.908;10.850;2022-09-16T13:12:01;11.20;99.90
8172;DHT22;4127;47.908;10.850;2022-09-16T13:14:52;11.10;99.90
8172;DHT22;4127;47.908;10.850;2022-09-16T13:17:34;11.30;99.90
8172;DHT22;4127;47.908;10.850;2022-09-16T13:20:05;11.30;99.90
8172;DHT22;4127;47.908;10.850;2022-09-16T13:25:26;11.50;99.90
8172;DHT22;4127;47.908;10.850;2022-09-16T13:30:35;11.50;99.90
8172;DHT22;4127;47.908;10.850;2022-09-16T13:33:21;11.60;99.90
8172;DHT22;4127;47.908;10.850;2022-09-16T13:38:52;11.40;99.90
8172;DHT22;4127;47.908;10.850;2022-09-16T13:41:30;11.40;99.90
8172;DHT22;4127;47.908;10.850;2022-09-16T13:43:58;11.30;99.90
8172;DHT22;4127;47.908;10.850;2022-09-16T13:46:36;11.40;99.90
8172;DHT22;4127;47.908;10.850;2022-09-16T13:51:42;11.70;99.90
8172;DHT22;4127;47.908;10.850;2022-09-16T13:54:31;11.80;99.90
8172;DHT22;4127;47.908;10.850;2022-09-16T13:57:29;11.70;99.90
8172;DHT22;4127;47.908;10.850;2022-09-16T14:03:10;11.80;99.90
8172;DHT22;4127;47.908;10.850;2022-09-16T14:05:58;11.80;99.90
8172;DHT22;4127;47.908;10.850;2022-09-16T14:14:15;11.90;99.90
8172;DHT22;4127;47.908;10.850;2022-09-16T14:17:13;11.80;99.90
8172;DHT22;4127;47.908;10.850;2022-09-16T14:19:41;11.70;99.90
8172;DHT22;4127;47.908;10.850;2022-09-16T14:22:17;11.60;99.90
8172;DHT22;4127;47.908;10.850;2022-09-16T14:24:45;11.40;99.90
8172;DHT22;4127;47.908;10.850;2022-09-16T14:27:28;11.50;99.90
8172;DHT22;4127;47.908;10.850;2022-09-16T14:30:12;11.50;99.90
8172;DHT22;4127;47.908;10.850;2022-09-16T14:32:39;11.50;99.90
8172;DHT22;4127;47.908;10.850;2022-09-16T14:35:14;11.50;99.90
8172;DHT22;4127;47.908;10.850;2022-09-16T14:37:44;11.50;99.90
8172;DHT22;4127;47.908;10.850;2022-09-16T14:40:13;11.70;99.90
8172;DHT22;4127;47.908;10.850;2022-09-16T14:42:54;11.80;99.90
8172;DHT22;4127;47.908;10.850;2022-09-16T14:45:22;11.50;99.90
8172;DHT22;4127;47.908;10.850;2022-09-16T14:47:51;11.40;99.90
8172;DHT22;4127;47.908;10.850;2022-09-16T14:50:22;11.40;99.90
8172;DHT22;4127;47.908;10.850;2022-09-16T14:53:01;11.40;99.90
8172;DHT22;4127;47.908;10.850;2022-09-16T14:55:31;11.50;99.90
8172;DHT22;4127;47.908;10.850;2022-09-16T14:57:59;11.50;99.90
8172;DHT22;4127;47.908;10.850;2022-09-16T15:00:39;11.60;99.90
8172;DHT22;4127;47.908;10.850;2022-09-16T15:03:30;11.60;99.90
8172;DHT22;4127;47.908;10.850;2022-09-16T15:06:02;11.40;99.90
8172;DHT22;4127;47.908;10.850;2022-09-16T15:08:50;11.40;99.90
8172;DHT22;4127;47.908;10.850;2022-09-16T15:11:21;11.40;99.90
8172;DHT22;4127;47.908;10.850;2022-09-16T15:14:08;11.60;99.90
8172;DHT22;4127;47.908;10.850;2022-09-16T15:16:42;11.50;99.90
8172;DHT22;4127;47.908;10.850;2022-09-16T15:19:18;11.40;99.90
8172;DHT22;4127;47.908;10.850;2022-09-16T15:21:47;11.40;99.90
8172;DHT22;4127;47.908;10.850;2022-09-16T15:24:17;11.40;99.90
8172;DHT22;4127;47.908;10.850;2022-09-16T15:26:46;11.40;99.90
8172;DHT22;4127;47.908;10.850;2022-09-16T15:31:43;11.30;99.90
8172;DHT22;4127;47.908;10.850;2022-09-16T15:39:53;11.30;99.90
8172;DHT22;4127;47.908;10.850;2022-09-16T15:42:20;11.20;99.90
8172;DHT22;4127;47.908;10.850;2022-09-16T15:44:55;11.20;99.90
8172;DHT22;4127;47.908;10.850;2022-09-16T15:47:33;11.20;99.90
8172;DHT22;4127;47.908;10.850;2022-09-16T15:52:34;11.10;99.90
8172;DHT22;4127;47.908;10.850;2022-09-16T15:58:23;11.20;99.90
8172;DHT22;4127;47.908;10.850;2022-09-16T16:01:01;11.20;99.90
8172;DHT22;4127;47.908;10.850;2022-09-16T16:03:36;11.20;99.90
8172;DHT22;4127;47.908;10.850;2022-09-16T16:06:04;11.20;99.90
8172;DHT22;4127;47.908;10.850;2022-09-16T16:08:49;11.10;99.90
8172;DHT22;4127;47.908;10.850;2022-09-16T16:11:18;11.20;99.90
8172;DHT22;4127;47.908;10.850;2022-09-16T16:13:46;11.30;99.90
8172;DHT22;4127;47.908;10.850;2022-09-16T16:16:15;11.10;99.90
8172;DHT22;4127;47.908;10.850;2022-09-16T16:18:44;11.00;99.90
8172;DHT22;4127;47.908;10.850;2022-09-16T16:21:14;11.00;99.90
8172;DHT22;4127;47.908;10.850;2022-09-16T16:23:42;11.00;99.90
8172;DHT22;4127;47.908;10.850;2022-09-16T16:26:10;11.00;99.90
8172;DHT22;4127;47.908;10.850;2022-09-16T16:28:37;11.00;99.90
8172;DHT22;4127;47.908;10.850;2022-09-16T16:33:33;11.00;99.90
8172;DHT22;4127;47.908;10.850;2022-09-16T16:36:00;11.00;99.90
8172;DHT22;4127;47.908;10.850;2022-09-16T16:38:27;11.00;99.90
8172;DHT22;4127;47.908;10.850;2022-09-16T16:40:54;11.00;99.90
8172;DHT22;4127;47.908;10.850;2022-09-16T16:43:21;11.00;99.90
8172;DHT22;4127;47.908;10.850;2022-09-16T16:45:55;11.00;99.90
8172;DHT22;4127;47.908;10.850;2022-09-16T16:48:23;11.10;99.90
8172;DHT22;4127;47.908;10.850;2022-09-16T16:51:00;10.90;99.90
8172;DHT22;4127;47.908;10.850;2022-09-16T16:53:29;10.90;99.90
8172;DHT22;4127;47.908;10.850;2022-09-16T16:56:08;10.90;99.90
8172;DHT22;4127;47.908;10.850;2022-09-16T16:58:40;10.90;99.90
8172;DHT22;4127;47.908;10.850;2022-09-16T17:01:16;10.90;99.90
8172;DHT22;4127;47.908;10.850;2022-09-16T17:03:45;10.90;99.90
8172;DHT22;4127;47.908;10.850;2022-09-16T17:06:13;10.90;99.90
8172;DHT22;4127;47.908;10.850;2022-09-16T17:08:39;10.90;99.90
8172;DHT22;4127;47.908;10.850;2022-09-16T17:11:14;11.00;99.90
8172;DHT22;4127;47.908;10.850;2022-09-16T17:13:43;10.90;99.90
8172;DHT22;4127;47.908;10.850;2022-09-16T17:16:12;10.90;99.90
8172;DHT22;4127;47.908;10.850;2022-09-16T17:18:40;10.90;99.90
8172;DHT22;4127;47.908;10.850;2022-09-16T17:21:12;11.20;99.90
8172;DHT22;4127;47.908;10.850;2022-09-16T17:23:39;10.90;99.90
8172;DHT22;4127;47.908;10.850;2022-09-16T17:26:07;10.90;99.90
8172;DHT22;4127;47.908;10.850;2022-09-16T17:28:39;10.90;99.90
8172;DHT22;4127;47.908;10.850;2022-09-16T17:33:39;10.90;99.90
8172;DHT22;4127;47.908;10.850;2022-09-16T17:36:08;10.90;99.90
8172;DHT22;4127;47.908;10.850;2022-09-16T17:38:35;10.70;99.90
8172;DHT22;4127;47.908;10.850;2022-09-16T17:41:06;10.80;99.90
8172;DHT22;4127;47.908;10.850;2022-09-16T17:43:33;10.70;99.90
8172;DHT22;4127;47.908;10.850;2022-09-16T17:46:02;10.90;99.90
8172;DHT22;4127;47.908;10.850;2022-09-16T17:48:29;10.70;99.90
8172;DHT22;4127;47.908;10.850;2022-09-16T17:50:57;10.70;99.90
8172;DHT22;4127;47.908;10.850;2022-09-16T17:53:24;10.70;99.90
8172;DHT22;4127;47.908;10.850;2022-09-16T17:55:51;10.80;99.90
8172;DHT22;4127;47.908;10.850;2022-09-16T17:58:18;10.80;99.90
8172;DHT22;4127;47.908;10.850;2022-09-16T18:00:44;10.90;99.90
8172;DHT22;4127;47.908;10.850;2022-09-16T18:03:11;10.50;99.90
8172;DHT22;4127;47.908;10.850;2022-09-16T18:05:38;10.70;99.90
8172;DHT22;4127;47.908;10.850;2022-09-16T18:08:05;10.90;99.90
8172;DHT22;4127;47.908;10.850;2022-09-16T18:10:32;11.00;99.90
8172;DHT22;4127;47.908;10.850;2022-09-16T18:12:59;10.60;99.90
8172;DHT22;4127;47.908;10.850;2022-09-16T18:15:26;10.60;99.90
8172;DHT22;4127;47.908;10.850;2022-09-16T18:17:53;10.60;99.90
8172;DHT22;4127;47.908;10.850;2022-09-16T18:20:20;10.60;99.90
8172;DHT22;4127;47.908;10.850;2022-09-16T18:22:47;10.60;99.90
8172;DHT22;4127;47.908;10.850;2022-09-16T18:25:14;10.60;99.90
8172;DHT22;4127;47.908;10.850;2022-09-16T18:27:40;10.70;99.90
8172;DHT22;4127;47.908;10.850;2022-09-16T18:30:10;10.60;99.90
8172;DHT22;4127;47.908;10.850;2022-09-16T18:32:37;10.60;99.90
8172;DHT22;4127;47.908;10.850;2022-09-16T18:35:04;10.50;99.90
8172;DHT22;4127;47.908;10.850;2022-09-16T18:37:30;10.50;99.90
8172;DHT22;4127;47.908;10.850;2022-09-16T18:39:57;10.50;99.90
8172;DHT22;4127;47.908;10.850;2022-09-16T18:42:24;10.50;99.90
8172;DHT22;4127;47.908;10.850;2022-09-16T18:44:51;10.80;99.90
8172;DHT22;4127;47.908;10.850;2022-09-16T18:47:17;10.50;99.90
8172;DHT22;4127;47.908;10.850;2022-09-16T18:49:44;11.50;99.90
8172;DHT22;4127;47.908;10.850;2022-09-16T18:52:11;10.70;99.90
8172;DHT22;4127;47.908;10.850;2022-09-16T18:54:37;10.50;99.90
8172;DHT22;4127;47.908;10.850;2022-09-16T18:57:04;10.70;99.90
8172;DHT22;4127;47.908;10.850;2022-09-16T18:59:32;10.90;99.90
8172;DHT22;4127;47.908;10.850;2022-09-16T19:02:00;10.60;99.90
8172;DHT22;4127;47.908;10.850;2022-09-16T19:04:31;10.60;99.90
8172;DHT22;4127;47.908;10.850;2022-09-16T19:07:03;10.60;99.90
8172;DHT22;4127;47.908;10.850;2022-09-16T19:09:35;10.80;99.90
8172;DHT22;4127;47.908;10.850;2022-09-16T19:12:02;10.50;99.90
8172;DHT22;4127;47.908;10.850;2022-09-16T19:14:29;10.50;99.90
8172;DHT22;4127;47.908;10.850;2022-09-16T19:16:56;10.50;99.90
8172;DHT22;4127;47.908;10.850;2022-09-16T19:19:23;10.40;99.90
8172;DHT22;4127;47.908;10.850;2022-09-16T19:21:50;10.60;99.90